Ingelmunster, Belgium
Current Conditions -  °F | °C
As of 2:30 PM on Saturday 25 Oct 2014 (Local Time) from LFQQ Reporting Station
Scattered Clouds Scattered Clouds  
Wind Chill: 15°   Ceiling: Unl
Heat Index: 15°   Visibility: 6mi
Dew Point:   Wind: 9mph
Humidity: 67%   Direction: 280°W
Pressure: 30.12"   Gusts: NA
Location:  50.92°N, 3.26°E
Report Text: LFQQ 251230Z 28008KT 250V320 9999 SCT034 15/09 Q1020 NOSIG
Loading
Personal Weather Stations






























Interactive Weather Map
Tropical Storm Tracking
New forecast layout! Learn more

10-Day Weather Forecast

Advertisements
Track Severe Weather on mobile